Time;durP1;ratioP1;P1;durP2;ratioP2;P2;SDS_P1;SDS_P2;PMS_P1;PMS_P2;Temp;Humidity;BMP_temperature;BMP_pressure;BME280_temperature;BME280_humidity;BME280_pressure;Samples;Min_cycle;Max_cycle;Signal;HPM_P1;HPM_P2
2023/10/28 00:04:11;;;;;;;;;;;;;;;9.08;100.00;94343.94;10520317;28;2519;-74
2023/10/28 00:09:20;;;;;;;;;;;;;;;9.08;100.00;94360.81;10518396;28;2596;-79
2023/10/28 00:14:23;;;;;;;;;;;;;;;8.93;100.00;94369.16;10515561;28;2657;-73
2023/10/28 00:19:34;;;;;;;;;;;;;;;8.79;100.00;94371.84;10498235;28;2617;-74
2023/10/28 00:24:43;;;;;;;;;;;;;;;8.68;100.00;94377.66;10516816;28;2593;-73
2023/10/28 00:29:51;;;;;;;;;;;;;;;8.47;100.00;94393.31;10513086;28;2891;-72
2023/10/28 00:34:58;;;;;;;;;;;;;;;8.37;100.00;94389.69;10530468;27;2630;-72
2023/10/28 00:40:05;;;;;;;;;;;;;;;8.30;100.00;94396.50;10507964;28;2566;-72
2023/10/28 00:45:11;;;;;;;;;;;;;;;8.24;100.00;94401.13;10500760;28;2574;-72
2023/10/28 00:50:15;;;;;;;;;;;;;;;8.23;100.00;94409.44;10498982;28;5151;-73
2023/10/28 00:55:23;;;;;;;;;;;;;;;8.25;100.00;94412.63;10517355;28;2581;-74
2023/10/28 01:00:29;;;;;;;;;;;;;;;8.31;100.00;94406.09;10504333;28;2872;-75
2023/10/28 01:05:34;;;;;;;;;;;;;;;8.31;100.00;94403.44;10509332;28;2651;-73
2023/10/28 01:10:39;;;;;;;;;;;;;;;8.38;100.00;94411.91;10504570;28;2660;-72
2023/10/28 01:15:43;;;;;;;;;;;;;;;8.43;100.00;94413.72;10514278;28;2604;-73
2023/10/28 01:20:50;;;;;;;;;;;;;;;8.47;100.00;94417.41;10516941;28;2966;-73
2023/10/28 01:25:54;;;;;;;;;;;;;;;8.49;100.00;94415.22;10527735;28;2607;-73
2023/10/28 01:30:57;;;;;;;;;;;;;;;8.54;100.00;94420.50;10523514;28;2638;-73
2023/10/28 01:36:06;;;;;;;;;;;;;;;8.54;100.00;94413.25;10516022;28;2951;-72
2023/10/28 01:41:14;;;;;;;;;;;;;;;8.59;100.00;94401.69;10507042;28;2641;-73
2023/10/28 01:46:22;;;;;;;;;;;;;;;8.59;100.00;94391.75;10529262;28;2774;-73
2023/10/28 01:51:30;;;;;;;;;;;;;;;8.65;100.00;94400.47;10503507;28;2636;-73
2023/10/28 01:56:35;;;;;;;;;;;;;;;8.63;100.00;94392.72;10505281;28;2974;-74
2023/10/28 02:01:39;;;;;;;;;;;;;;;8.61;100.00;94400.28;10505051;28;2815;-73
2023/10/28 02:06:44;;;;;;;;;;;;;;;8.65;100.00;94385.22;10515240;28;2647;-71
2023/10/28 02:11:49;;;;;;;;;;;;;;;8.64;100.00;94394.31;10513433;28;2557;-73
2023/10/28 02:16:54;;;;;;;;;;;;;;;8.64;100.00;94393.53;10513331;28;2860;-71
2023/10/28 02:21:58;;;;;;;;;;;;;;;8.65;100.00;94395.94;10515484;28;2717;-71
2023/10/28 02:27:19;;;;;;;;;;;;;;;8.67;100.00;94403.66;10519703;28;2709;-75
2023/10/28 02:32:24;;;;;;;;;;;;;;;8.61;100.00;94402.97;10498602;28;2812;-71
2023/10/28 02:37:31;;;;;;;;;;;;;;;8.65;100.00;94395.94;10521654;28;2760;-72
2023/10/28 02:42:34;;;;;;;;;;;;;;;8.66;100.00;94402.88;10508212;28;2602;-72
2023/10/28 02:47:51;;;;;;;;;;;;;;;8.71;100.00;94393.13;10513222;28;5378;-73
2023/10/28 02:52:55;;;;;;;;;;;;;;;8.69;100.00;94389.97;10484538;28;2633;-74
2023/10/28 02:57:59;;;;;;;;;;;;;;;8.55;100.00;94384.59;10491681;28;2804;-77
2023/10/28 03:03:04;;;;;;;;;;;;;;;8.42;100.00;94386.16;10516849;28;2949;-74
2023/10/28 03:08:08;;;;;;;;;;;;;;;8.43;100.00;94387.72;10499548;28;2810;-74
2023/10/28 03:13:14;;;;;;;;;;;;;;;8.22;100.00;94375.75;10481783;28;2663;-74
2023/10/28 03:18:18;;;;;;;;;;;;;;;8.10;100.00;94378.88;10530242;28;2599;-71
2023/10/28 03:23:22;;;;;;;;;;;;;;;7.98;100.00;94390.00;10528675;28;2756;-73
2023/10/28 03:28:28;;;;;;;;;;;;;;;8.08;100.00;94394.44;10497929;28;2598;-74
2023/10/28 03:33:31;;;;;;;;;;;;;;;8.11;100.00;94399.97;10518500;28;2847;-74
2023/10/28 03:38:39;;;;;;;;;;;;;;;8.12;100.00;94400.78;10491902;28;2638;-73
2023/10/28 03:43:45;;;;;;;;;;;;;;;8.19;100.00;94393.16;10519032;28;2726;-73
2023/10/28 03:48:51;;;;;;;;;;;;;;;8.30;100.00;94394.59;10499615;28;5273;-73
2023/10/28 03:53:58;;;;;;;;;;;;;;;8.43;100.00;94398.44;10496645;28;2906;-74
2023/10/28 03:59:02;;;;;;;;;;;;;;;8.41;100.00;94395.28;10491737;28;2742;-72
2023/10/28 04:04:05;;;;;;;;;;;;;;;8.37;100.00;94416.47;10493057;28;3071;-73
2023/10/28 04:09:22;;;;;;;;;;;;;;;8.44;100.00;94426.00;10520568;28;2549;-72
2023/10/28 04:14:33;;;;;;;;;;;;;;;8.48;100.00;94419.00;10517241;28;2651;-74
2023/10/28 04:19:37;;;;;;;;;;;;;;;8.66;100.00;94415.47;10516568;28;2805;-71
2023/10/28 04:24:47;;;;;;;;;;;;;;;8.74;100.00;94419.34;10499377;28;2660;-71
2023/10/28 04:29:51;;;;;;;;;;;;;;;8.74;100.00;94417.47;10512519;28;2553;-72
2023/10/28 04:34:55;;;;;;;;;;;;;;;8.83;100.00;94412.22;10522271;28;2860;-72
2023/10/28 04:40:10;;;;;;;;;;;;;;;8.74;100.00;94422.84;10492569;28;2795;-73
2023/10/28 04:45:15;;;;;;;;;;;;;;;8.55;100.00;94422.09;10509129;28;2660;-73
2023/10/28 04:50:18;;;;;;;;;;;;;;;8.48;100.00;94422.47;10482115;28;2685;-72
2023/10/28 04:55:21;;;;;;;;;;;;;;;8.50;100.00;94422.97;10493671;28;2633;-73
2023/10/28 05:00:37;;;;;;;;;;;;;;;8.53;100.00;94422.38;10515730;28;2842;-72
2023/10/28 05:05:41;;;;;;;;;;;;;;;8.50;100.00;94425.63;10524451;28;2592;-72
2023/10/28 05:10:45;;;;;;;;;;;;;;;8.39;100.00;94437.59;10517994;28;2583;-73
2023/10/28 05:15:51;;;;;;;;;;;;;;;8.27;100.00;94435.38;10510893;28;2585;-71
2023/10/28 05:20:55;;;;;;;;;;;;;;;8.12;100.00;94438.25;10508111;28;2632;-73
2023/10/28 05:25:58;;;;;;;;;;;;;;;8.05;100.00;94430.59;10508624;28;2648;-72
2023/10/28 05:31:03;;;;;;;;;;;;;;;8.10;100.00;94435.88;10505955;28;2586;-75
2023/10/28 05:36:15;;;;;;;;;;;;;;;8.18;100.00;94439.75;10502754;28;2700;-71
2023/10/28 05:41:18;;;;;;;;;;;;;;;8.35;100.00;94445.44;10494564;28;2592;-74
2023/10/28 05:46:23;;;;;;;;;;;;;;;8.43;100.00;94441.28;10493098;28;2573;-73
2023/10/28 05:51:28;;;;;;;;;;;;;;;8.51;100.00;94450.53;10506954;28;2582;-73
2023/10/28 05:56:32;;;;;;;;;;;;;;;8.55;100.00;94446.97;10499445;28;2565;-74
2023/10/28 06:01:36;;;;;;;;;;;;;;;8.55;100.00;94451.56;10508102;28;2664;-77
2023/10/28 06:06:40;;;;;;;;;;;;;;;8.47;100.00;94446.88;10514281;28;2651;-73
2023/10/28 06:11:45;;;;;;;;;;;;;;;8.37;100.00;94450.50;10514344;28;2572;-72
2023/10/28 06:16:50;;;;;;;;;;;;;;;8.37;100.00;94469.22;10514819;28;2639;-72
2023/10/28 06:21:56;;;;;;;;;;;;;;;8.27;100.00;94469.34;10513719;28;2656;-75
2023/10/28 06:27:03;;;;;;;;;;;;;;;8.20;100.00;94479.63;10488125;28;2556;-72
2023/10/28 06:32:11;;;;;;;;;;;;;;;8.25;100.00;94466.97;10480832;28;2917;-73
2023/10/28 06:37:16;;;;;;;;;;;;;;;8.29;100.00;94480.56;10501912;28;2538;-73
2023/10/28 06:42:19;;;;;;;;;;;;;;;8.30;100.00;94482.16;10502378;28;2573;-73
2023/10/28 06:47:23;;;;;;;;;;;;;;;8.27;100.00;94482.72;10512189;28;2924;-75
2023/10/28 06:52:32;;;;;;;;;;;;;;;8.31;100.00;94486.44;10495240;28;5299;-74
2023/10/28 06:57:36;;;;;;;;;;;;;;;8.35;100.00;94490.94;10510828;28;2788;-72
2023/10/28 07:02:41;;;;;;;;;;;;;;;8.44;100.00;94501.00;10493599;28;2546;-73
2023/10/28 07:07:45;;;;;;;;;;;;;;;8.42;100.00;94498.63;10506494;28;3027;-73
2023/10/28 07:12:53;;;;;;;;;;;;;;;8.56;100.00;94506.69;10502478;28;2629;-76
2023/10/28 07:17:58;;;;;;;;;;;;;;;8.79;100.00;94502.34;10479918;28;2804;-72
2023/10/28 07:23:03;;;;;;;;;;;;;;;8.93;100.00;94508.53;10513139;28;2809;-71
2023/10/28 07:28:12;;;;;;;;;;;;;;;9.00;100.00;94522.34;10503733;28;2632;-71
2023/10/28 07:33:22;;;;;;;;;;;;;;;9.12;100.00;94520.00;10500955;28;2693;-73
2023/10/28 07:38:28;;;;;;;;;;;;;;;9.28;100.00;94525.06;10516362;28;2530;-72
2023/10/28 07:43:32;;;;;;;;;;;;;;;9.46;100.00;94533.06;10487242;28;2767;-73
2023/10/28 07:53:54;;;;;;;;;;;;;;;9.70;100.00;94538.25;10513032;28;2558;-71
2023/10/28 07:59:02;;;;;;;;;;;;;;;9.83;100.00;94547.38;10535853;28;2650;-72
2023/10/28 08:04:06;;;;;;;;;;;;;;;10.00;100.00;94558.31;10517046;28;2984;-76
2023/10/28 08:09:10;;;;;;;;;;;;;;;10.18;100.00;94574.59;10515104;28;2850;-72
2023/10/28 08:14:15;;;;;;;;;;;;;;;10.38;100.00;94574.25;10503529;28;2592;-76
2023/10/28 08:19:18;;;;;;;;;;;;;;;10.56;100.00;94569.81;10503093;28;2814;-76
2023/10/28 08:24:24;;;;;;;;;;;;;;;10.70;100.00;94559.81;10510484;28;2551;-72
2023/10/28 08:29:28;;;;;;;;;;;;;;;10.98;100.00;94559.72;10478178;28;2657;-72
2023/10/28 08:34:34;;;;;;;;;;;;;;;11.43;100.00;94559.69;10519562;28;2830;-73
2023/10/28 08:39:40;;;;;;;;;;;;;;;11.78;100.00;94574.13;10515899;28;2836;-75
2023/10/28 08:44:44;;;;;;;;;;;;;;;12.13;100.00;94558.91;10500867;28;2763;-73
2023/10/28 08:49:50;;;;;;;;;;;;;;;12.00;100.00;94576.00;10502633;28;5154;-73
2023/10/28 08:54:54;;;;;;;;;;;;;;;12.08;100.00;94580.59;10518519;28;2577;-78
2023/10/28 08:59:59;;;;;;;;;;;;;;;12.23;100.00;94576.72;10514075;28;2765;-71
2023/10/28 09:05:03;;;;;;;;;;;;;;;12.39;100.00;94591.31;10508308;28;2665;-70
2023/10/28 09:10:10;;;;;;;;;;;;;;;12.44;100.00;94589.28;10511499;28;2779;-70
2023/10/28 09:15:14;;;;;;;;;;;;;;;12.35;100.00;94585.78;10501252;28;2628;-73
2023/10/28 09:20:18;;;;;;;;;;;;;;;12.28;100.00;94582.75;10499208;28;2585;-72
2023/10/28 09:25:24;;;;;;;;;;;;;;;12.29;100.00;94587.03;10509735;28;2622;-71
2023/10/28 09:30:28;;;;;;;;;;;;;;;12.36;100.00;94586.56;10481099;28;2635;-72
2023/10/28 09:35:32;;;;;;;;;;;;;;;12.26;100.00;94584.16;10512334;28;3296;-69
2023/10/28 09:40:35;;;;;;;;;;;;;;;12.32;100.00;94567.53;10509188;28;2606;-72
2023/10/28 09:45:41;;;;;;;;;;;;;;;12.48;100.00;94572.50;10510943;28;2856;-72
2023/10/28 09:50:48;;;;;;;;;;;;;;;12.49;100.00;94574.88;10506331;28;5222;-70
2023/10/28 09:55:56;;;;;;;;;;;;;;;12.60;100.00;94580.75;10496743;28;2533;-71
2023/10/28 10:01:02;;;;;;;;;;;;;;;12.69;100.00;94578.84;10488571;28;2584;-72
2023/10/28 10:06:11;;;;;;;;;;;;;;;12.97;100.00;94573.94;10519055;28;1983;-72
2023/10/28 10:11:15;;;;;;;;;;;;;;;12.95;100.00;94571.56;10530307;28;1536;-72
2023/10/28 10:16:19;;;;;;;;;;;;;;;13.12;100.00;94565.38;10497670;28;1446;-74
2023/10/28 10:21:23;;;;;;;;;;;;;;;12.97;100.00;94558.56;10489024;28;2440;-73
2023/10/28 10:26:26;;;;;;;;;;;;;;;13.18;100.00;94557.94;10501313;28;1976;-73
2023/10/28 10:31:30;;;;;;;;;;;;;;;13.33;100.00;94562.06;10501289;28;2172;-75
2023/10/28 10:36:37;;;;;;;;;;;;;;;13.29;100.00;94556.50;10508908;28;1886;-74
2023/10/28 10:41:41;;;;;;;;;;;;;;;13.50;100.00;94553.94;10546342;28;1513;-73
2023/10/28 10:46:48;;;;;;;;;;;;;;;13.60;100.00;94555.47;10514231;28;1914;-72
2023/10/28 10:51:53;;;;;;;;;;;;;;;13.65;100.00;94555.31;10502766;28;5192;-74
2023/10/28 10:57:06;;;;;;;;;;;;;;;13.77;100.00;94558.13;10525737;28;1773;-73
2023/10/28 11:02:10;;;;;;;;;;;;;;;13.71;100.00;94565.63;10481264;28;2615;-73
2023/10/28 11:07:14;;;;;;;;;;;;;;;13.78;100.00;94557.81;10491948;28;2650;-75
2023/10/28 11:12:19;;;;;;;;;;;;;;;13.84;100.00;94552.25;10523953;28;2620;-74
2023/10/28 11:17:44;;;;;;;;;;;;;;;13.85;100.00;94562.72;10504355;28;2571;-75
2023/10/28 11:22:47;;;;;;;;;;;;;;;13.85;100.00;94554.59;10511995;28;2828;-73
2023/10/28 11:27:56;;;;;;;;;;;;;;;13.83;100.00;94553.34;10511593;28;2624;-75
2023/10/28 11:32:59;;;;;;;;;;;;;;;13.79;100.00;94547.78;10518832;28;2637;-73
2023/10/28 11:38:10;;;;;;;;;;;;;;;13.83;100.00;94546.03;10492091;28;2622;-73
2023/10/28 11:43:13;;;;;;;;;;;;;;;13.90;100.00;94550.94;10497375;28;2732;-75
2023/10/28 11:48:17;;;;;;;;;;;;;;;13.90;100.00;94546.34;10479136;28;2527;-72
2023/10/28 11:53:21;;;;;;;;;;;;;;;13.95;100.00;94548.06;10507837;28;2644;-73
2023/10/28 11:58:28;;;;;;;;;;;;;;;13.97;100.00;94545.81;10495750;28;2632;-73
2023/10/28 12:03:35;;;;;;;;;;;;;;;14.02;100.00;94559.94;10491299;28;3118;-74
2023/10/28 12:08:41;;;;;;;;;;;;;;;14.07;100.00;94551.66;10519562;28;2579;-73
2023/10/28 12:13:46;;;;;;;;;;;;;;;14.15;100.00;94552.75;10504115;28;2597;-74
2023/10/28 12:18:49;;;;;;;;;;;;;;;14.15;100.00;94552.75;10510091;28;2625;-72
2023/10/28 12:23:53;;;;;;;;;;;;;;;14.09;100.00;94554.03;10497023;28;2591;-75
2023/10/28 12:28:57;;;;;;;;;;;;;;;14.11;100.00;94542.91;10511362;28;2566;-73
2023/10/28 12:34:03;;;;;;;;;;;;;;;14.19;100.00;94547.50;10518049;28;2643;-74
2023/10/28 12:39:10;;;;;;;;;;;;;;;14.26;100.00;94545.06;10505402;28;2570;-76
2023/10/28 12:44:18;;;;;;;;;;;;;;;14.18;100.00;94540.47;10491024;28;2633;-73
2023/10/28 12:49:21;;;;;;;;;;;;;;;14.10;100.00;94534.00;10494657;28;5170;-73
2023/10/28 12:54:27;;;;;;;;;;;;;;;14.30;100.00;94532.47;10511327;28;2645;-73
2023/10/28 12:59:32;;;;;;;;;;;;;;;14.24;100.00;94523.75;10515336;28;2687;-71
2023/10/28 13:04:41;;;;;;;;;;;;;;;14.36;100.00;94517.63;10495045;28;2678;-71
2023/10/28 13:09:52;;;;;;;;;;;;;;;14.51;100.00;94506.28;10513738;28;2646;-72
2023/10/28 13:14:58;;;;;;;;;;;;;;;14.66;100.00;94509.53;10513042;28;2751;-73
2023/10/28 13:20:02;;;;;;;;;;;;;;;14.65;100.00;94514.13;10505777;28;2608;-72
2023/10/28 13:25:08;;;;;;;;;;;;;;;14.63;100.00;94507.47;10514326;28;2127;-73
2023/10/28 13:30:13;;;;;;;;;;;;;;;14.54;100.00;94505.63;10532968;27;2034;-73
2023/10/28 13:35:21;;;;;;;;;;;;;;;14.48;100.00;94506.16;10504170;28;1535;-73
2023/10/28 13:40:25;;;;;;;;;;;;;;;14.39;100.00;94489.97;10521237;28;2408;-77
2023/10/28 13:45:37;;;;;;;;;;;;;;;14.24;100.00;94487.81;10528954;28;1501;-75
2023/10/28 13:50:41;;;;;;;;;;;;;;;14.28;100.00;94486.06;10527476;28;5174;-78
2023/10/28 13:55:48;;;;;;;;;;;;;;;14.18;100.00;94483.72;10506352;28;2160;-72
2023/10/28 14:00:54;;;;;;;;;;;;;;;14.12;100.00;94498.53;10526966;28;1524;-76
2023/10/28 14:05:57;;;;;;;;;;;;;;;14.15;100.00;94508.72;10526791;28;1486;-73
2023/10/28 14:11:08;;;;;;;;;;;;;;;14.33;100.00;94493.97;10514726;28;1910;-74
2023/10/28 14:16:15;;;;;;;;;;;;;;;14.52;100.00;94488.94;10512731;28;1501;-72
2023/10/28 14:21:21;;;;;;;;;;;;;;;14.65;100.00;94480.91;10500137;28;1582;-74
2023/10/28 14:26:29;;;;;;;;;;;;;;;14.64;100.00;94463.09;10533571;28;2406;-72
2023/10/28 14:31:42;;;;;;;;;;;;;;;14.75;100.00;94462.34;10514486;28;1566;-72
2023/10/28 14:36:49;;;;;;;;;;;;;;;14.74;100.00;94465.38;10546133;27;1574;-74
2023/10/28 14:41:58;;;;;;;;;;;;;;;14.78;100.00;94471.72;10539077;28;1756;-78
2023/10/28 14:47:01;;;;;;;;;;;;;;;14.49;100.00;94500.41;10548740;27;1949;-74
2023/10/28 14:52:07;;;;;;;;;;;;;;;14.45;100.00;94509.50;10535399;28;5207;-78
2023/10/28 14:57:13;;;;;;;;;;;;;;;14.15;100.00;94516.81;10532473;28;1947;-73
2023/10/28 15:02:18;;;;;;;;;;;;;;;14.06;100.00;94533.88;10528673;28;1768;-73
2023/10/28 15:07:25;;;;;;;;;;;;;;;13.99;100.00;94538.97;10528468;28;1949;-73
2023/10/28 15:12:28;;;;;;;;;;;;;;;13.85;100.00;94538.41;10511460;28;1628;-71
2023/10/28 15:17:32;;;;;;;;;;;;;;;13.80;100.00;94533.16;10502921;28;1459;-71
2023/10/28 15:22:40;;;;;;;;;;;;;;;13.75;100.00;94549.56;10511751;28;1638;-69
2023/10/28 15:27:48;;;;;;;;;;;;;;;13.76;100.00;94551.94;10538190;28;3207;-70
2023/10/28 15:32:53;;;;;;;;;;;;;;;13.63;100.00;94555.66;10516900;28;1580;-70
2023/10/28 15:37:59;;;;;;;;;;;;;;;13.51;100.00;94561.69;10506224;28;2665;-73
2023/10/28 15:43:02;;;;;;;;;;;;;;;13.36;100.00;94570.31;10511324;28;2649;-72
2023/10/28 15:48:09;;;;;;;;;;;;;;;13.26;100.00;94584.13;10515695;28;5162;-71
2023/10/28 15:53:13;;;;;;;;;;;;;;;13.18;100.00;94576.81;10513384;28;2569;-70
2023/10/28 15:58:19;;;;;;;;;;;;;;;13.01;100.00;94569.50;10530619;28;2562;-71
2023/10/28 16:03:24;;;;;;;;;;;;;;;12.98;100.00;94554.78;10501065;28;2645;-70
2023/10/28 16:08:28;;;;;;;;;;;;;;;12.89;100.00;94545.88;10514413;28;2549;-70
2023/10/28 16:13:36;;;;;;;;;;;;;;;12.81;100.00;94543.97;10492181;28;2793;-70
2023/10/28 16:18:42;;;;;;;;;;;;;;;12.83;100.00;94547.13;10516399;28;2559;-70
2023/10/28 16:23:50;;;;;;;;;;;;;;;12.94;100.00;94534.94;10529957;28;2672;-70
2023/10/28 16:28:53;;;;;;;;;;;;;;;12.80;100.00;94552.38;10510630;28;2713;-71
2023/10/28 16:33:56;;;;;;;;;;;;;;;12.72;100.00;94551.25;10513707;28;2644;-70
2023/10/28 16:39:00;;;;;;;;;;;;;;;12.61;100.00;94552.69;10514759;28;2723;-72
2023/10/28 16:44:08;;;;;;;;;;;;;;;12.60;100.00;94564.59;10510529;28;2618;-71
2023/10/28 16:49:12;;;;;;;;;;;;;;;12.50;100.00;94571.06;10507202;28;2655;-72
2023/10/28 16:54:18;;;;;;;;;;;;;;;12.54;100.00;94580.13;10514587;28;2652;-71
2023/10/28 16:59:26;;;;;;;;;;;;;;;12.48;100.00;94592.16;10464929;28;2870;-70
2023/10/28 17:04:30;;;;;;;;;;;;;;;12.49;100.00;94598.34;10466765;28;2722;-70
2023/10/28 17:09:34;;;;;;;;;;;;;;;12.62;100.00;94589.31;10472828;28;2594;-70
2023/10/28 17:14:38;;;;;;;;;;;;;;;12.63;100.00;94590.91;10468703;28;2577;-73
2023/10/28 17:19:43;;;;;;;;;;;;;;;12.51;100.00;94606.88;10471885;28;2587;-70
2023/10/28 17:24:48;;;;;;;;;;;;;;;12.52;100.00;94595.78;10475491;28;2625;-73
2023/10/28 17:29:54;;;;;;;;;;;;;;;12.40;100.00;94593.69;10485440;28;2565;-72
2023/10/28 17:34:57;;;;;;;;;;;;;;;12.37;100.00;94585.47;10490954;28;2688;-70
2023/10/28 17:40:00;;;;;;;;;;;;;;;12.36;100.00;94578.50;10476090;28;2682;-70
2023/10/28 17:45:10;;;;;;;;;;;;;;;12.27;100.00;94594.59;10472333;28;2619;-72
2023/10/28 17:50:14;;;;;;;;;;;;;;;12.23;100.00;94588.28;10477066;28;5183;-70
2023/10/28 17:55:18;;;;;;;;;;;;;;;12.18;100.00;94604.59;10471684;28;2551;-70
2023/10/28 18:00:24;;;;;;;;;;;;;;;12.12;100.00;94608.50;10512603;28;2681;-71
2023/10/28 18:05:33;;;;;;;;;;;;;;;12.04;100.00;94607.38;10528045;28;2605;-69
2023/10/28 18:10:37;;;;;;;;;;;;;;;12.10;100.00;94600.75;10493771;28;2601;-70
2023/10/28 18:15:47;;;;;;;;;;;;;;;11.98;100.00;94605.13;10496505;28;2595;-71
2023/10/28 18:20:53;;;;;;;;;;;;;;;11.95;100.00;94620.00;10494214;28;2618;-71
2023/10/28 18:26:00;;;;;;;;;;;;;;;12.05;100.00;94625.13;10509323;28;2697;-71
2023/10/28 18:31:05;;;;;;;;;;;;;;;11.97;100.00;94636.66;10508086;28;2602;-70
2023/10/28 18:36:14;;;;;;;;;;;;;;;12.03;100.00;94648.09;10513636;28;2601;-72
2023/10/28 18:41:18;;;;;;;;;;;;;;;11.94;100.00;94639.16;10515475;28;2541;-72
2023/10/28 18:46:28;;;;;;;;;;;;;;;11.92;100.00;94646.78;10497807;28;2592;-71
2023/10/28 18:51:35;;;;;;;;;;;;;;;11.81;100.00;94657.78;10506511;28;5048;-71
2023/10/28 18:56:39;;;;;;;;;;;;;;;11.74;100.00;94649.31;10531964;28;2624;-72
2023/10/28 19:01:49;;;;;;;;;;;;;;;11.84;100.00;94632.97;10496068;28;2682;-72
2023/10/28 19:06:53;;;;;;;;;;;;;;;11.83;100.00;94630.56;10520750;28;2684;-71
2023/10/28 19:11:57;;;;;;;;;;;;;;;11.82;100.00;94637.84;10524974;28;2616;-72
2023/10/28 19:17:02;;;;;;;;;;;;;;;11.79;100.00;94629.56;10500813;28;2589;-77
2023/10/28 19:22:05;;;;;;;;;;;;;;;11.79;100.00;94633.06;10524559;28;2907;-75
2023/10/28 19:27:09;;;;;;;;;;;;;;;11.79;100.00;94633.06;10530705;28;2019;-70
2023/10/28 19:32:19;;;;;;;;;;;;;;;11.78;100.00;94644.13;10533378;28;1976;-71
2023/10/28 19:37:34;;;;;;;;;;;;;;;11.67;100.00;94640.91;10528452;28;1539;-69
2023/10/28 19:42:38;;;;;;;;;;;;;;;11.62;100.00;94636.44;10536245;28;1970;-70
2023/10/28 19:47:45;;;;;;;;;;;;;;;11.66;100.00;94636.63;10513029;28;5163;-70
2023/10/28 19:52:59;;;;;;;;;;;;;;;11.59;100.00;94638.97;10526259;28;1469;-69
2023/10/28 19:58:04;;;;;;;;;;;;;;;11.58;100.00;94648.94;10549212;27;1545;-70
2023/10/28 20:03:12;;;;;;;;;;;;;;;11.54;100.00;94657.91;10533348;28;1465;-72
2023/10/28 20:08:18;;;;;;;;;;;;;;;11.57;100.00;94657.28;10516187;28;2543;-69
2023/10/28 20:13:23;;;;;;;;;;;;;;;11.56;100.00;94643.03;10531070;28;1554;-70
2023/10/28 20:18:37;;;;;;;;;;;;;;;11.46;100.00;94642.50;10525267;28;1586;-71
2023/10/28 20:23:43;;;;;;;;;;;;;;;11.36;100.00;94647.03;10532266;28;1906;-72
2023/10/28 20:28:48;;;;;;;;;;;;;;;11.25;100.00;94650.25;10543189;28;1917;-71
2023/10/28 20:33:54;;;;;;;;;;;;;;;11.12;100.00;94651.88;10514472;28;1504;-71
2023/10/28 20:38:57;;;;;;;;;;;;;;;11.05;100.00;94654.22;10506626;28;2048;-70
2023/10/28 20:44:01;;;;;;;;;;;;;;;11.05;100.00;94646.94;10511856;28;1493;-73
2023/10/28 20:49:08;;;;;;;;;;;;;;;11.12;100.00;94645.72;10540254;28;5207;-69
2023/10/28 20:54:13;;;;;;;;;;;;;;;11.10;100.00;94648.72;10530968;28;2600;-71
2023/10/28 20:59:19;;;;;;;;;;;;;;;11.04;100.00;94648.03;10522164;28;1480;-72
2023/10/28 21:04:26;;;;;;;;;;;;;;;11.00;100.00;94641.66;10528753;28;1724;-70
2023/10/28 21:09:34;;;;;;;;;;;;;;;10.83;100.00;94634.25;10511109;28;2044;-70
2023/10/28 21:14:41;;;;;;;;;;;;;;;10.67;100.00;94642.94;10523847;28;1689;-71
2023/10/28 21:19:49;;;;;;;;;;;;;;;10.57;100.00;94641.28;10496452;28;1540;-71
2023/10/28 21:24:52;;;;;;;;;;;;;;;10.47;100.00;94631.53;10519425;28;1738;-69
2023/10/28 21:29:56;;;;;;;;;;;;;;;10.32;100.00;94633.75;10544436;28;1910;-69
2023/10/28 21:35:01;;;;;;;;;;;;;;;10.21;100.00;94627.72;10532011;28;1441;-75
2023/10/28 21:40:09;;;;;;;;;;;;;;;10.09;100.00;94630.91;10505483;28;2578;-70
2023/10/28 21:45:13;;;;;;;;;;;;;;;10.00;100.00;94624.66;10494528;28;2608;-71
2023/10/28 21:50:15;;;;;;;;;;;;;;;9.93;100.00;94632.31;10493666;28;5132;-74
2023/10/28 21:55:21;;;;;;;;;;;;;;;9.89;100.00;94623.25;10510169;28;2621;-73
2023/10/28 22:00:42;;;;;;;;;;;;;;;9.86;100.00;94618.44;10524618;28;2716;-73
2023/10/28 22:05:48;;;;;;;;;;;;;;;9.82;100.00;94617.47;10494792;28;2585;-72
2023/10/28 22:10:54;;;;;;;;;;;;;;;9.72;100.00;94619.22;10510958;28;2642;-72
2023/10/28 22:15:58;;;;;;;;;;;;;;;9.59;100.00;94614.63;10521524;28;2658;-74
2023/10/28 22:21:09;;;;;;;;;;;;;;;9.62;100.00;94599.84;10502754;28;2594;-71
2023/10/28 22:26:13;;;;;;;;;;;;;;;9.49;100.00;94601.44;10471918;28;2651;-70
2023/10/28 22:31:19;;;;;;;;;;;;;;;9.46;100.00;94602.78;10511385;28;2643;-74
2023/10/28 22:36:25;;;;;;;;;;;;;;;9.34;100.00;94609.72;10515905;28;2570;-72
2023/10/28 22:41:29;;;;;;;;;;;;;;;9.30;100.00;94628.28;10500574;28;2569;-72
2023/10/28 22:46:40;;;;;;;;;;;;;;;9.32;100.00;94633.34;10501583;28;2732;-72
2023/10/28 22:51:45;;;;;;;;;;;;;;;9.34;100.00;94631.16;10512396;28;5270;-74
2023/10/28 22:56:51;;;;;;;;;;;;;;;9.37;100.00;94635.97;10491832;28;2759;-73
2023/10/28 23:01:55;;;;;;;;;;;;;;;9.41;100.00;94631.59;10491535;28;2651;-73
2023/10/28 23:07:00;;;;;;;;;;;;;;;9.53;100.00;94629.22;10522983;28;2620;-71
2023/10/28 23:12:08;;;;;;;;;;;;;;;9.48;100.00;94610.56;10505864;28;2576;-74
2023/10/28 23:17:13;;;;;;;;;;;;;;;9.42;100.00;94607.16;10520291;28;2614;-72
2023/10/28 23:22:18;;;;;;;;;;;;;;;9.35;100.00;94611.28;10486477;28;2577;-72
2023/10/28 23:27:22;;;;;;;;;;;;;;;9.28;100.00;94629.66;10518777;28;2608;-72
2023/10/28 23:32:28;;;;;;;;;;;;;;;9.28;100.00;94621.63;10517360;28;2663;-73
2023/10/28 23:37:34;;;;;;;;;;;;;;;9.29;100.00;94591.03;10527011;28;2689;-73
2023/10/28 23:42:36;;;;;;;;;;;;;;;9.37;100.00;94571.59;10529747;28;2585;-73
2023/10/28 23:47:42;;;;;;;;;;;;;;;9.32;100.00;94560.94;10525901;28;5163;-76
2023/10/28 23:52:53;;;;;;;;;;;;;;;9.20;100.00;94562.19;10508686;28;2565;-76
2023/10/28 23:57:56;;;;;;;;;;;;;;;9.11;100.00;94549.78;10493877;28;2578;-74
